sensor_id;sensor_type;location;lat;lon;timestamp;pressure;altitude;pressure_sealevel;temperature;humidity
37304;BME280;23188;51.188;16.374;2022-12-31T00:00:42;99819.41;;;8.88;86.70
37304;BME280;23188;51.188;16.374;2022-12-31T00:04:47;99803.95;;;8.93;86.69
37304;BME280;23188;51.188;16.374;2022-12-31T00:08:50;99801.65;;;8.94;86.93
37304;BME280;23188;51.188;16.374;2022-12-31T00:12:53;99809.70;;;8.98;86.98
37304;BME280;23188;51.188;16.374;2022-12-31T00:16:54;99800.84;;;8.88;87.30
37304;BME280;23188;51.188;16.374;2022-12-31T00:20:55;99798.53;;;8.95;87.06
37304;BME280;23188;51.188;16.374;2022-12-31T00:24:57;99793.33;;;8.93;88.11
37304;BME280;23188;51.188;16.374;2022-12-31T00:28:59;99796.58;;;8.97;88.50
37304;BME280;23188;51.188;16.374;2022-12-31T00:33:01;99814.80;;;8.96;88.84
37304;BME280;23188;51.188;16.374;2022-12-31T00:37:03;99816.08;;;9.02;89.29
37304;BME280;23188;51.188;16.374;2022-12-31T00:41:05;99821.17;;;8.99;89.75
37304;BME280;23188;51.188;16.374;2022-12-31T00:45:07;99828.14;;;9.06;89.89
37304;BME280;23188;51.188;16.374;2022-12-31T00:49:09;99827.56;;;8.96;90.57
37304;BME280;23188;51.188;16.374;2022-12-31T00:53:11;99821.73;;;9.03;90.65
37304;BME280;23188;51.188;16.374;2022-12-31T00:57:12;99816.16;;;9.11;90.67
37304;BME280;23188;51.188;16.374;2022-12-31T01:01:16;99814.19;;;9.19;91.02
37304;BME280;23188;51.188;16.374;2022-12-31T01:05:22;99804.50;;;9.29;90.87
37304;BME280;23188;51.188;16.374;2022-12-31T01:09:24;99795.39;;;9.38;91.18
37304;BME280;23188;51.188;16.374;2022-12-31T01:13:25;99791.26;;;9.45;90.75
37304;BME280;23188;51.188;16.374;2022-12-31T01:17:27;99788.60;;;9.45;90.26
37304;BME280;23188;51.188;16.374;2022-12-31T01:21:29;99801.28;;;9.41;90.13
37304;BME280;23188;51.188;16.374;2022-12-31T01:25:36;99812.52;;;9.39;90.44
37304;BME280;23188;51.188;16.374;2022-12-31T01:29:38;99818.95;;;9.31;91.09
37304;BME280;23188;51.188;16.374;2022-12-31T01:33:40;99833.80;;;9.28;91.73
37304;BME280;23188;51.188;16.374;2022-12-31T01:37:41;99839.36;;;9.31;91.99
37304;BME280;23188;51.188;16.374;2022-12-31T01:41:45;99843.24;;;9.26;92.22
37304;BME280;23188;51.188;16.374;2022-12-31T01:45:50;99852.89;;;9.27;92.14
37304;BME280;23188;51.188;16.374;2022-12-31T01:49:59;99852.39;;;9.28;91.99
37304;BME280;23188;51.188;16.374;2022-12-31T01:54:05;99858.01;;;9.40;91.77
37304;BME280;23188;51.188;16.374;2022-12-31T01:58:17;99855.11;;;9.38;91.40
37304;BME280;23188;51.188;16.374;2022-12-31T02:02:17;99856.51;;;9.48;90.95
37304;BME280;23188;51.188;16.374;2022-12-31T02:06:45;99857.36;;;9.48;90.70
37304;BME280;23188;51.188;16.374;2022-12-31T02:10:55;99862.77;;;9.52;90.33
37304;BME280;23188;51.188;16.374;2022-12-31T02:14:56;99870.80;;;9.62;90.28
37304;BME280;23188;51.188;16.374;2022-12-31T02:32:16;99872.19;;;9.72;89.91
37304;BME280;23188;51.188;16.374;2022-12-31T02:36:35;99893.44;;;9.72;90.37
37304;BME280;23188;51.188;16.374;2022-12-31T02:40:38;99894.52;;;9.69;90.57
37304;BME280;23188;51.188;16.374;2022-12-31T02:44:41;99886.88;;;9.76;90.27
37304;BME280;23188;51.188;16.374;2022-12-31T02:49:00;99889.92;;;9.71;90.41
37304;BME280;23188;51.188;16.374;2022-12-31T02:57:40;99888.30;;;9.65;90.90
37304;BME280;23188;51.188;16.374;2022-12-31T03:01:54;99900.55;;;9.50;91.64
37304;BME280;23188;51.188;16.374;2022-12-31T03:06:12;99886.22;;;9.47;91.58
37304;BME280;23188;51.188;16.374;2022-12-31T03:10:14;99897.09;;;9.44;91.69
37304;BME280;23188;51.188;16.374;2022-12-31T03:14:16;99901.66;;;9.42;91.74
37304;BME280;23188;51.188;16.374;2022-12-31T03:18:18;99896.89;;;9.30;92.02
37304;BME280;23188;51.188;16.374;2022-12-31T03:22:21;99895.37;;;9.22;92.61
37304;BME280;23188;51.188;16.374;2022-12-31T03:26:28;99908.63;;;9.27;92.98
37304;BME280;23188;51.188;16.374;2022-12-31T03:30:31;99913.67;;;9.31;93.18
37304;BME280;23188;51.188;16.374;2022-12-31T03:34:32;99922.45;;;9.37;93.31
37304;BME280;23188;51.188;16.374;2022-12-31T03:38:34;99933.50;;;9.48;93.25
37304;BME280;23188;51.188;16.374;2022-12-31T03:42:35;99930.94;;;9.52;93.57
37304;BME280;23188;51.188;16.374;2022-12-31T03:46:37;99924.36;;;9.67;93.11
37304;BME280;23188;51.188;16.374;2022-12-31T03:50:38;99930.09;;;9.78;92.68
37304;BME280;23188;51.188;16.374;2022-12-31T03:54:39;99921.27;;;9.83;92.04
37304;BME280;23188;51.188;16.374;2022-12-31T03:58:41;99912.63;;;9.91;91.82
37304;BME280;23188;51.188;16.374;2022-12-31T04:02:42;99895.75;;;10.02;91.44
37304;BME280;23188;51.188;16.374;2022-12-31T04:06:43;99900.92;;;10.09;91.33
37304;BME280;23188;51.188;16.374;2022-12-31T04:10:45;99888.92;;;10.15;91.02
37304;BME280;23188;51.188;16.374;2022-12-31T04:14:46;99880.41;;;10.21;90.97
37304;BME280;23188;51.188;16.374;2022-12-31T04:18:48;99899.25;;;10.24;90.71
37304;BME280;23188;51.188;16.374;2022-12-31T04:22:49;99889.48;;;10.19;91.00
37304;BME280;23188;51.188;16.374;2022-12-31T04:26:50;99906.13;;;10.21;91.45
37304;BME280;23188;51.188;16.374;2022-12-31T04:30:52;99910.47;;;10.22;91.61
37304;BME280;23188;51.188;16.374;2022-12-31T04:34:53;99917.11;;;10.22;91.57
37304;BME280;23188;51.188;16.374;2022-12-31T04:38:55;99910.66;;;10.14;92.06
37304;BME280;23188;51.188;16.374;2022-12-31T04:42:56;99910.47;;;10.22;91.91
37304;BME280;23188;51.188;16.374;2022-12-31T04:46:58;99910.27;;;10.19;91.88
37304;BME280;23188;51.188;16.374;2022-12-31T04:50:59;99906.67;;;10.14;91.69
37304;BME280;23188;51.188;16.374;2022-12-31T04:55:00;99912.44;;;10.04;92.04
37304;BME280;23188;51.188;16.374;2022-12-31T04:59:03;99911.17;;;9.93;92.62
37304;BME280;23188;51.188;16.374;2022-12-31T05:03:04;99898.16;;;9.90;92.86
37304;BME280;23188;51.188;16.374;2022-12-31T05:07:06;99892.75;;;9.85;93.75
37304;BME280;23188;51.188;16.374;2022-12-31T05:11:08;99897.92;;;9.87;94.02
37304;BME280;23188;51.188;16.374;2022-12-31T05:15:10;99888.27;;;9.86;94.88
37304;BME280;23188;51.188;16.374;2022-12-31T05:19:11;99895.50;;;9.90;95.27
37304;BME280;23188;51.188;16.374;2022-12-31T05:23:14;99905.33;;;9.99;95.39
37304;BME280;23188;51.188;16.374;2022-12-31T05:27:16;99897.32;;;10.05;95.17
37304;BME280;23188;51.188;16.374;2022-12-31T05:31:18;99902.60;;;10.10;94.49
37304;BME280;23188;51.188;16.374;2022-12-31T05:35:19;99897.13;;;10.12;93.98
37304;BME280;23188;51.188;16.374;2022-12-31T05:39:20;99899.95;;;10.10;94.00
37304;BME280;23188;51.188;16.374;2022-12-31T05:43:22;99897.05;;;10.08;94.05
37304;BME280;23188;51.188;16.374;2022-12-31T05:47:23;99896.23;;;10.07;94.49
37304;BME280;23188;51.188;16.374;2022-12-31T05:51:25;99896.31;;;10.11;94.76
37304;BME280;23188;51.188;16.374;2022-12-31T05:55:26;99906.00;;;10.07;95.25
37304;BME280;23188;51.188;16.374;2022-12-31T05:59:28;99909.05;;;10.02;96.08
37304;BME280;23188;51.188;16.374;2022-12-31T06:03:30;99899.74;;;10.02;96.99
37304;BME280;23188;51.188;16.374;2022-12-31T06:07:31;99898.18;;;10.05;97.92
37304;BME280;23188;51.188;16.374;2022-12-31T06:11:33;99911.63;;;10.13;97.95
37304;BME280;23188;51.188;16.374;2022-12-31T06:15:38;99915.67;;;10.23;97.53
37304;BME280;23188;51.188;16.374;2022-12-31T06:19:40;99912.22;;;10.17;98.02
37304;BME280;23188;51.188;16.374;2022-12-31T06:23:41;99919.13;;;10.14;98.70
37304;BME280;23188;51.188;16.374;2022-12-31T06:27:43;99904.91;;;10.09;98.73
37304;BME280;23188;51.188;16.374;2022-12-31T06:31:44;99903.93;;;10.10;98.52
37304;BME280;23188;51.188;16.374;2022-12-31T06:35:46;99914.53;;;10.16;98.33
37304;BME280;23188;51.188;16.374;2022-12-31T06:39:47;99905.34;;;10.14;98.77
37304;BME280;23188;51.188;16.374;2022-12-31T06:43:49;99907.17;;;10.14;99.27
37304;BME280;23188;51.188;16.374;2022-12-31T06:47:50;99922.34;;;10.18;99.11
37304;BME280;23188;51.188;16.374;2022-12-31T06:51:52;99925.24;;;10.20;99.83
37304;BME280;23188;51.188;16.374;2022-12-31T06:55:54;99912.34;;;10.15;100.00
37304;BME280;23188;51.188;16.374;2022-12-31T06:59:56;99931.97;;;10.24;100.00
37304;BME280;23188;51.188;16.374;2022-12-31T07:19:00;99957.43;;;10.64;99.59
37304;BME280;23188;51.188;16.374;2022-12-31T07:22:26;99964.27;;;10.72;99.19
37304;BME280;23188;51.188;16.374;2022-12-31T07:30:53;99969.97;;;10.83;98.32
37304;BME280;23188;51.188;16.374;2022-12-31T07:39:38;99972.81;;;11.01;98.26
37304;BME280;23188;51.188;16.374;2022-12-31T07:48:23;99985.52;;;11.13;98.07
37304;BME280;23188;51.188;16.374;2022-12-31T07:52:26;99985.41;;;11.24;97.92
37304;BME280;23188;51.188;16.374;2022-12-31T07:56:28;99988.37;;;11.31;97.43
37304;BME280;23188;51.188;16.374;2022-12-31T08:00:31;99992.15;;;11.38;97.16
37304;BME280;23188;51.188;16.374;2022-12-31T08:04:54;99984.39;;;11.41;96.93
37304;BME280;23188;51.188;16.374;2022-12-31T08:13:11;99983.66;;;11.39;97.39
37304;BME280;23188;51.188;16.374;2022-12-31T08:17:15;99978.70;;;11.40;97.36
37304;BME280;23188;51.188;16.374;2022-12-31T08:30:14;99969.87;;;11.69;96.98
37304;BME280;23188;51.188;16.374;2022-12-31T08:38:56;99958.91;;;11.82;96.75
37304;BME280;23188;51.188;16.374;2022-12-31T08:43:25;99957.57;;;11.92;96.37
37304;BME280;23188;51.188;16.374;2022-12-31T08:52:04;99941.46;;;12.27;94.54
37304;BME280;23188;51.188;16.374;2022-12-31T08:56:33;99941.30;;;12.38;93.64
37304;BME280;23188;51.188;16.374;2022-12-31T09:00:36;99932.74;;;12.49;92.87
37304;BME280;23188;51.188;16.374;2022-12-31T09:14:02;99943.92;;;12.62;92.09
37304;BME280;23188;51.188;16.374;2022-12-31T09:18:23;99954.05;;;12.73;91.98
37304;BME280;23188;51.188;16.374;2022-12-31T09:22:25;99955.93;;;12.76;91.51
37304;BME280;23188;51.188;16.374;2022-12-31T09:26:52;99960.19;;;12.83;91.84
37304;BME280;23188;51.188;16.374;2022-12-31T09:31:25;99965.56;;;12.87;92.00
37304;BME280;23188;51.188;16.374;2022-12-31T09:35:41;99954.78;;;13.07;91.81
37304;BME280;23188;51.188;16.374;2022-12-31T09:39:46;99953.03;;;13.16;91.76
37304;BME280;23188;51.188;16.374;2022-12-31T09:48:49;99962.25;;;13.35;91.98
37304;BME280;23188;51.188;16.374;2022-12-31T09:57:33;99956.07;;;13.49;92.62
37304;BME280;23188;51.188;16.374;2022-12-31T10:38:17;99931.14;;;14.41;91.45
37304;BME280;23188;51.188;16.374;2022-12-31T11:09:18;99917.80;;;14.54;91.06
37304;BME280;23188;51.188;16.374;2022-12-31T11:22:31;99899.78;;;14.60;93.43
37304;BME280;23188;51.188;16.374;2022-12-31T11:35:21;99896.00;;;14.75;93.57
37304;BME280;23188;51.188;16.374;2022-12-31T12:06:19;99868.31;;;15.47;91.11
37304;BME280;23188;51.188;16.374;2022-12-31T12:10:39;99882.55;;;15.55;90.54
37304;BME280;23188;51.188;16.374;2022-12-31T12:14:53;99889.08;;;15.53;89.75
37304;BME280;23188;51.188;16.374;2022-12-31T12:19:04;99886.24;;;15.54;89.58
37304;BME280;23188;51.188;16.374;2022-12-31T12:23:21;99887.24;;;15.58;90.55
37304;BME280;23188;51.188;16.374;2022-12-31T12:27:21;99889.23;;;15.64;90.52
37304;BME280;23188;51.188;16.374;2022-12-31T12:31:24;99881.88;;;15.74;89.29
37304;BME280;23188;51.188;16.374;2022-12-31T12:35:32;99887.05;;;15.84;89.48
37304;BME280;23188;51.188;16.374;2022-12-31T12:39:34;99896.11;;;15.91;89.14
37304;BME280;23188;51.188;16.374;2022-12-31T12:43:37;99903.66;;;15.96;89.18
37304;BME280;23188;51.188;16.374;2022-12-31T12:47:41;99898.62;;;15.89;88.36
37304;BME280;23188;51.188;16.374;2022-12-31T13:14:28;99915.03;;;15.48;90.91
37304;BME280;23188;51.188;16.374;2022-12-31T13:18:53;99913.70;;;15.44;91.04
37304;BME280;23188;51.188;16.374;2022-12-31T13:27:38;99923.75;;;15.42;91.47
37304;BME280;23188;51.188;16.374;2022-12-31T13:31:44;99920.74;;;15.37;91.94
37304;BME280;23188;51.188;16.374;2022-12-31T13:35:53;99926.10;;;15.37;91.80
37304;BME280;23188;51.188;16.374;2022-12-31T13:40:29;99929.27;;;15.36;91.79
37304;BME280;23188;51.188;16.374;2022-12-31T13:44:40;99927.41;;;15.33;91.98
37304;BME280;23188;51.188;16.374;2022-12-31T13:53:12;99924.42;;;15.36;92.12
37304;BME280;23188;51.188;16.374;2022-12-31T13:57:22;99929.45;;;15.39;91.95
37304;BME280;23188;51.188;16.374;2022-12-31T14:01:42;99943.52;;;15.37;92.03
37304;BME280;23188;51.188;16.374;2022-12-31T14:05:58;99947.69;;;15.39;91.74
37304;BME280;23188;51.188;16.374;2022-12-31T14:10:12;99955.25;;;15.36;91.80
37304;BME280;23188;51.188;16.374;2022-12-31T14:18:35;99962.58;;;15.25;92.50
37304;BME280;23188;51.188;16.374;2022-12-31T14:27:33;99966.26;;;15.16;92.90
37304;BME280;23188;51.188;16.374;2022-12-31T14:31:56;99969.09;;;15.14;93.29
37304;BME280;23188;51.188;16.374;2022-12-31T14:36:14;99970.77;;;15.16;93.42
37304;BME280;23188;51.188;16.374;2022-12-31T14:53:38;99986.55;;;15.39;92.81
37304;BME280;23188;51.188;16.374;2022-12-31T14:57:43;99995.80;;;15.62;91.87
37304;BME280;23188;51.188;16.374;2022-12-31T15:01:46;99985.77;;;15.80;91.21
37304;BME280;23188;51.188;16.374;2022-12-31T15:24:01;100004.72;;;16.16;88.10
37304;BME280;23188;51.188;16.374;2022-12-31T15:32:38;99999.50;;;16.35;87.19
37304;BME280;23188;51.188;16.374;2022-12-31T15:36:50;99995.95;;;16.39;87.14
37304;BME280;23188;51.188;16.374;2022-12-31T15:40:50;100000.14;;;16.46;86.65
37304;BME280;23188;51.188;16.374;2022-12-31T15:44:59;100003.81;;;16.57;86.10
37304;BME280;23188;51.188;16.374;2022-12-31T15:49:17;99997.41;;;16.62;85.62
37304;BME280;23188;51.188;16.374;2022-12-31T15:53:38;100002.95;;;16.65;85.15
37304;BME280;23188;51.188;16.374;2022-12-31T15:57:42;100000.42;;;16.72;84.78
37304;BME280;23188;51.188;16.374;2022-12-31T16:01:44;100009.12;;;16.78;84.34
37304;BME280;23188;51.188;16.374;2022-12-31T16:05:47;100011.78;;;16.82;84.07
37304;BME280;23188;51.188;16.374;2022-12-31T16:09:51;100017.81;;;16.84;83.71
37304;BME280;23188;51.188;16.374;2022-12-31T16:13:55;100041.33;;;16.82;83.99
37304;BME280;23188;51.188;16.374;2022-12-31T16:18:02;100039.33;;;16.80;83.92
37304;BME280;23188;51.188;16.374;2022-12-31T16:22:10;100041.02;;;16.77;83.83
37304;BME280;23188;51.188;16.374;2022-12-31T16:26:14;100042.65;;;16.86;83.58
37304;BME280;23188;51.188;16.374;2022-12-31T16:30:27;100042.47;;;16.92;83.13
37304;BME280;23188;51.188;16.374;2022-12-31T16:34:35;100050.04;;;16.92;82.87
37304;BME280;23188;51.188;16.374;2022-12-31T16:38:36;100057.48;;;16.74;83.51
37304;BME280;23188;51.188;16.374;2022-12-31T16:42:39;100059.33;;;16.69;83.74
37304;BME280;23188;51.188;16.374;2022-12-31T16:46:41;100055.84;;;16.56;84.24
37304;BME280;23188;51.188;16.374;2022-12-31T16:50:44;100064.73;;;16.52;84.42
37304;BME280;23188;51.188;16.374;2022-12-31T16:54:51;100059.53;;;16.47;84.50
37304;BME280;23188;51.188;16.374;2022-12-31T16:59:00;100063.23;;;16.41;84.92
37304;BME280;23188;51.188;16.374;2022-12-31T17:11:56;100070.63;;;16.35;85.73
37304;BME280;23188;51.188;16.374;2022-12-31T17:15:59;100067.45;;;16.27;86.12
37304;BME280;23188;51.188;16.374;2022-12-31T17:20:03;100064.27;;;16.16;86.72
37304;BME280;23188;51.188;16.374;2022-12-31T17:24:10;100068.94;;;16.09;86.74
37304;BME280;23188;51.188;16.374;2022-12-31T17:28:23;100071.81;;;16.04;86.59
37304;BME280;23188;51.188;16.374;2022-12-31T17:32:37;100074.14;;;15.90;86.65
37304;BME280;23188;51.188;16.374;2022-12-31T17:36:40;100069.91;;;15.79;86.70
37304;BME280;23188;51.188;16.374;2022-12-31T17:45:18;100099.84;;;15.62;87.37
37304;BME280;23188;51.188;16.374;2022-12-31T17:49:27;100096.33;;;15.53;87.73
37304;BME280;23188;51.188;16.374;2022-12-31T17:53:29;100090.59;;;15.40;88.56
37304;BME280;23188;51.188;16.374;2022-12-31T17:57:31;100110.48;;;15.33;89.24
37304;BME280;23188;51.188;16.374;2022-12-31T18:01:32;100116.64;;;15.21;89.83
37304;BME280;23188;51.188;16.374;2022-12-31T18:05:34;100113.56;;;15.12;90.49
37304;BME280;23188;51.188;16.374;2022-12-31T18:09:37;100114.19;;;15.02;91.27
37304;BME280;23188;51.188;16.374;2022-12-31T18:13:39;100110.33;;;15.00;91.45
37304;BME280;23188;51.188;16.374;2022-12-31T18:17:41;100095.75;;;14.94;91.74
37304;BME280;23188;51.188;16.374;2022-12-31T18:21:43;100099.45;;;14.97;91.80
37304;BME280;23188;51.188;16.374;2022-12-31T18:25:44;100097.78;;;15.01;91.53
37304;BME280;23188;51.188;16.374;2022-12-31T18:29:46;100096.93;;;15.00;91.68
37304;BME280;23188;51.188;16.374;2022-12-31T18:33:49;100099.14;;;15.05;91.54
37304;BME280;23188;51.188;16.374;2022-12-31T18:37:51;100100.16;;;15.08;91.26
37304;BME280;23188;51.188;16.374;2022-12-31T18:41:52;100091.64;;;15.12;90.85
37304;BME280;23188;51.188;16.374;2022-12-31T18:45:54;100092.17;;;15.16;90.65
37304;BME280;23188;51.188;16.374;2022-12-31T18:49:55;100104.89;;;15.14;90.33
37304;BME280;23188;51.188;16.374;2022-12-31T18:53:57;100110.72;;;15.09;90.13
37304;BME280;23188;51.188;16.374;2022-12-31T18:58:00;100102.13;;;14.97;90.60
37304;BME280;23188;51.188;16.374;2022-12-31T19:02:02;100107.25;;;14.87;91.49
37304;BME280;23188;51.188;16.374;2022-12-31T19:06:04;100103.83;;;14.76;92.00
37304;BME280;23188;51.188;16.374;2022-12-31T19:10:05;100106.60;;;14.70;92.78
37304;BME280;23188;51.188;16.374;2022-12-31T19:14:19;100106.60;;;14.70;92.95
37304;BME280;23188;51.188;16.374;2022-12-31T19:18:23;100101.88;;;14.64;93.89
37304;BME280;23188;51.188;16.374;2022-12-31T19:22:25;100100.23;;;14.67;94.83
37304;BME280;23188;51.188;16.374;2022-12-31T19:26:26;100098.14;;;14.75;94.84
37304;BME280;23188;51.188;16.374;2022-12-31T19:30:31;100098.70;;;14.87;94.60
37304;BME280;23188;51.188;16.374;2022-12-31T19:34:33;100104.97;;;15.00;93.83
37304;BME280;23188;51.188;16.374;2022-12-31T19:38:35;100111.71;;;15.04;93.37
37304;BME280;23188;51.188;16.374;2022-12-31T19:42:36;100104.64;;;15.03;93.10
37304;BME280;23188;51.188;16.374;2022-12-31T19:46:37;100114.02;;;15.03;93.01
37304;BME280;23188;51.188;16.374;2022-12-31T19:50:44;100120.23;;;15.04;92.83
37304;BME280;23188;51.188;16.374;2022-12-31T19:54:47;100114.64;;;14.93;92.98
37304;BME280;23188;51.188;16.374;2022-12-31T19:58:49;100136.73;;;14.91;93.11
37304;BME280;23188;51.188;16.374;2022-12-31T20:02:50;100131.16;;;14.84;93.14
37304;BME280;23188;51.188;16.374;2022-12-31T20:06:52;100132.14;;;14.79;93.37
37304;BME280;23188;51.188;16.374;2022-12-31T20:10:53;100131.46;;;14.77;93.02
37304;BME280;23188;51.188;16.374;2022-12-31T20:14:56;100137.05;;;14.69;93.27
37304;BME280;23188;51.188;16.374;2022-12-31T20:18:58;100140.70;;;14.64;93.22
37304;BME280;23188;51.188;16.374;2022-12-31T20:23:00;100139.36;;;14.64;93.27
37304;BME280;23188;51.188;16.374;2022-12-31T20:27:01;100134.47;;;14.60;93.28
37304;BME280;23188;51.188;16.374;2022-12-31T20:31:09;100130.43;;;14.55;93.25
37304;BME280;23188;51.188;16.374;2022-12-31T20:35:12;100120.84;;;14.49;93.34
37304;BME280;23188;51.188;16.374;2022-12-31T20:39:13;100123.78;;;14.37;94.16
37304;BME280;23188;51.188;16.374;2022-12-31T20:43:15;100124.80;;;14.40;95.34
37304;BME280;23188;51.188;16.374;2022-12-31T20:47:16;100124.03;;;14.48;95.15
37304;BME280;23188;51.188;16.374;2022-12-31T20:51:19;100122.11;;;14.63;94.35
37304;BME280;23188;51.188;16.374;2022-12-31T20:55:21;100125.71;;;14.71;93.56
37304;BME280;23188;51.188;16.374;2022-12-31T20:59:23;100120.77;;;14.81;92.98
37304;BME280;23188;51.188;16.374;2022-12-31T21:03:24;100122.81;;;14.87;92.36
37304;BME280;23188;51.188;16.374;2022-12-31T21:07:26;100110.76;;;14.87;92.17
37304;BME280;23188;51.188;16.374;2022-12-31T21:11:27;100106.76;;;14.91;91.72
37304;BME280;23188;51.188;16.374;2022-12-31T21:15:48;100111.98;;;14.97;91.23
37304;BME280;23188;51.188;16.374;2022-12-31T21:19:50;100115.88;;;15.03;90.79
37304;BME280;23188;51.188;16.374;2022-12-31T21:23:51;100110.52;;;15.03;90.52
37304;BME280;23188;51.188;16.374;2022-12-31T21:27:53;100106.03;;;15.07;90.06
37304;BME280;23188;51.188;16.374;2022-12-31T21:31:54;100114.73;;;15.05;90.05
37304;BME280;23188;51.188;16.374;2022-12-31T21:35:57;100117.92;;;15.13;89.62
37304;BME280;23188;51.188;16.374;2022-12-31T21:39:59;100120.97;;;15.14;89.15
37304;BME280;23188;51.188;16.374;2022-12-31T21:44:01;100132.02;;;15.15;88.89
37304;BME280;23188;51.188;16.374;2022-12-31T21:48:04;100124.47;;;15.14;88.58
37304;BME280;23188;51.188;16.374;2022-12-31T21:52:22;100123.28;;;15.13;88.74
37304;BME280;23188;51.188;16.374;2022-12-31T21:56:26;100109.70;;;15.06;88.78
37304;BME280;23188;51.188;16.374;2022-12-31T22:00:27;100103.19;;;15.13;88.28
37304;BME280;23188;51.188;16.374;2022-12-31T22:04:47;100110.94;;;15.20;88.17
37304;BME280;23188;51.188;16.374;2022-12-31T22:08:51;100111.95;;;15.23;87.84
37304;BME280;23188;51.188;16.374;2022-12-31T22:12:54;100120.52;;;15.27;87.46
37304;BME280;23188;51.188;16.374;2022-12-31T22:16:56;100116.50;;;15.27;87.09
37304;BME280;23188;51.188;16.374;2022-12-31T22:21:03;100127.04;;;15.28;86.93
37304;BME280;23188;51.188;16.374;2022-12-31T22:25:08;100121.35;;;15.32;86.68
37304;BME280;23188;51.188;16.374;2022-12-31T22:29:10;100132.25;;;15.30;86.47
37304;BME280;23188;51.188;16.374;2022-12-31T22:33:11;100125.55;;;15.26;86.62
37304;BME280;23188;51.188;16.374;2022-12-31T22:37:12;100118.98;;;15.20;86.88
37304;BME280;23188;51.188;16.374;2022-12-31T22:41:16;100111.27;;;15.17;86.94
37304;BME280;23188;51.188;16.374;2022-12-31T22:45:19;100106.72;;;15.13;86.81
37304;BME280;23188;51.188;16.374;2022-12-31T22:49:20;100111.88;;;15.11;86.74
37304;BME280;23188;51.188;16.374;2022-12-31T22:53:22;100123.78;;;15.08;86.78
37304;BME280;23188;51.188;16.374;2022-12-31T22:57:24;100121.87;;;14.96;87.02
37304;BME280;23188;51.188;16.374;2022-12-31T23:01:25;100107.42;;;14.89;87.28
37304;BME280;23188;51.188;16.374;2022-12-31T23:05:27;100100.34;;;14.80;87.43
37304;BME280;23188;51.188;16.374;2022-12-31T23:09:28;100099.62;;;14.74;87.51
37304;BME280;23188;51.188;16.374;2022-12-31T23:13:48;100099.14;;;14.74;87.26
37304;BME280;23188;51.188;16.374;2022-12-31T23:18:09;100095.60;;;14.74;87.13
37304;BME280;23188;51.188;16.374;2022-12-31T23:22:29;100089.98;;;14.81;86.60
37304;BME280;23188;51.188;16.374;2022-12-31T23:26:48;100092.81;;;14.83;86.27
37304;BME280;23188;51.188;16.374;2022-12-31T23:30:51;100104.38;;;14.84;86.18
37304;BME280;23188;51.188;16.374;2022-12-31T23:34:52;100100.85;;;14.83;86.08
37304;BME280;23188;51.188;16.374;2022-12-31T23:38:55;100117.30;;;14.89;85.77
37304;BME280;23188;51.188;16.374;2022-12-31T23:42:57;100122.58;;;14.76;86.14
37304;BME280;23188;51.188;16.374;2022-12-31T23:46:58;100137.50;;;14.79;86.03
37304;BME280;23188;51.188;16.374;2022-12-31T23:51:00;100137.83;;;14.80;85.70
37304;BME280;23188;51.188;16.374;2022-12-31T23:55:01;100134.48;;;14.78;85.51
37304;BME280;23188;51.188;16.374;2022-12-31T23:59:03;100135.30;;;14.78;85.68
